createdAt,value
2023-05-21T00:02:55.515Z,32.40
2023-05-21T00:07:48.826Z,33.75
2023-05-21T00:12:43.014Z,32.05
2023-05-21T00:17:37.476Z,31.67
2023-05-21T00:22:30.351Z,35.72
2023-05-21T00:27:24.224Z,34.10
2023-05-21T00:32:17.661Z,38.50
2023-05-21T00:37:11.063Z,33.42
2023-05-21T00:42:04.170Z,36.20
2023-05-21T00:47:00.460Z,38.90
2023-05-21T00:51:53.253Z,39.05
2023-05-21T00:56:47.151Z,36.53
2023-05-21T01:01:41.140Z,41.28
2023-05-21T01:06:35.584Z,39.97
2023-05-21T01:11:49.170Z,36.10
2023-05-21T01:16:43.724Z,37.33
2023-05-21T01:21:38.689Z,40.35
2023-05-21T01:26:34.309Z,48.28
2023-05-21T01:31:36.339Z,50.92
2023-05-21T01:36:36.170Z,49.00
2023-05-21T01:41:30.659Z,46.60
2023-05-21T01:46:26.377Z,45.38
2023-05-21T01:51:19.636Z,51.33
2023-05-21T01:56:13.094Z,46.90
2023-05-21T02:01:06.460Z,46.08
2023-05-21T02:05:59.358Z,47.47
2023-05-21T02:10:52.539Z,45.63
2023-05-21T02:15:45.688Z,49.67
2023-05-21T02:20:40.414Z,50.80
2023-05-21T02:25:33.396Z,49.08
2023-05-21T02:30:27.109Z,46.15
2023-05-21T02:35:20.172Z,50.97
2023-05-21T02:40:13.303Z,51.45
2023-05-21T02:45:12.937Z,53.40
2023-05-21T02:50:09.095Z,51.78
2023-05-21T02:55:10.307Z,45.67
2023-05-21T03:00:04.461Z,46.28
2023-05-21T03:04:59.289Z,45.80
2023-05-21T03:09:52.619Z,49.13
2023-05-21T03:14:47.030Z,45.50
2023-05-21T03:19:41.030Z,42.47
2023-05-21T03:24:34.608Z,42.78
2023-05-21T03:29:28.910Z,41.22
2023-05-21T03:34:22.829Z,34.70
2023-05-21T03:39:16.707Z,30.52
2023-05-21T03:44:10.473Z,36.72
2023-05-21T03:49:15.005Z,33.88
2023-05-21T03:54:09.083Z,29.20
2023-05-21T03:59:03.816Z,35.15
2023-05-21T04:03:57.946Z,28.63
2023-05-21T04:08:53.338Z,33.58
2023-05-21T04:13:48.848Z,30.55
2023-05-21T04:18:44.932Z,26.65
2023-05-21T04:23:41.747Z,34.88
2023-05-21T04:28:43.024Z,35.80
2023-05-21T04:33:36.703Z,36.63
2023-05-21T04:38:29.367Z,34.33
2023-05-21T04:43:26.469Z,35.72
2023-05-21T04:48:25.128Z,33.35
2023-05-21T04:53:18.459Z,33.08
2023-05-21T04:58:11.950Z,31.02
2023-05-21T05:03:05.537Z,29.58
2023-05-21T05:07:58.993Z,28.00
2023-05-21T05:12:52.992Z,25.98
2023-05-21T05:17:48.968Z,26.42
2023-05-21T05:22:42.392Z,25.13
2023-05-21T05:27:37.809Z,27.17
2023-05-21T05:32:36.686Z,30.10
2023-05-21T05:37:30.047Z,26.60
2023-05-21T05:42:23.310Z,31.77
2023-05-21T05:47:18.027Z,27.15
2023-05-21T05:52:12.665Z,27.00
2023-05-21T05:57:05.809Z,26.65
2023-05-21T06:02:01.630Z,29.63
2023-05-21T06:06:55.038Z,22.83
2023-05-21T06:11:48.408Z,24.13
2023-05-21T06:16:41.782Z,26.25
2023-05-21T06:21:35.032Z,23.05
2023-05-21T06:26:31.593Z,24.55
2023-05-21T06:31:26.152Z,22.23
2023-05-21T06:36:20.274Z,24.30
2023-05-21T06:41:14.582Z,25.27
2023-05-21T06:46:17.885Z,23.55
2023-05-21T06:51:11.272Z,26.40
2023-05-21T06:56:05.355Z,25.58
2023-05-21T07:01:05.154Z,23.08
2023-05-21T07:05:59.588Z,24.15
2023-05-21T07:10:54.977Z,22.13
2023-05-21T07:15:50.259Z,22.90
2023-05-21T07:20:43.482Z,23.05
2023-05-21T07:25:40.807Z,21.65
2023-05-21T07:30:34.684Z,22.58
2023-05-21T07:35:29.684Z,20.02
2023-05-21T07:40:22.821Z,16.70
2023-05-21T07:45:16.361Z,16.50
2023-05-21T07:50:12.861Z,18.63
2023-05-21T07:55:07.159Z,16.40
2023-05-21T08:00:02.668Z,15.18
2023-05-21T08:04:58.527Z,16.73
2023-05-21T08:09:52.208Z,17.85
2023-05-21T08:14:46.372Z,14.90
2023-05-21T08:19:42.583Z,14.88
2023-05-21T08:24:37.294Z,13.63
2023-05-21T08:29:30.992Z,15.23
2023-05-21T08:34:23.802Z,16.25
2023-05-21T08:39:27.845Z,16.60
2023-05-21T08:44:23.046Z,15.30
2023-05-21T08:49:18.070Z,15.32
2023-05-21T08:54:12.165Z,15.63
2023-05-21T08:59:04.617Z,13.60
2023-05-21T09:04:18.998Z,16.05
2023-05-21T09:09:28.313Z,13.68
2023-05-21T09:14:22.787Z,12.53
2023-05-21T09:19:32.817Z,13.85
2023-05-21T09:24:33.111Z,14.68
2023-05-21T09:34:22.505Z,10.85
2023-05-21T09:39:29.736Z,11.30
2023-05-21T09:44:27.003Z,13.93
2023-05-21T09:49:28.567Z,13.60
2023-05-21T09:54:24.003Z,12.45
2023-05-21T09:59:17.252Z,10.90
2023-05-21T10:04:11.068Z,11.30
2023-05-21T10:09:08.156Z,11.27
2023-05-21T10:14:23.055Z,13.38
2023-05-21T10:19:16.930Z,12.07
2023-05-21T10:24:10.712Z,15.30
2023-05-21T10:29:04.432Z,10.60
2023-05-21T10:33:58.711Z,9.90
2023-05-21T10:38:51.068Z,12.73
2023-05-21T10:43:52.753Z,11.57
2023-05-21T10:49:05.107Z,12.27
2023-05-21T10:54:30.024Z,15.02
2023-05-21T10:59:43.754Z,10.68
2023-05-21T11:04:40.632Z,9.90
2023-05-21T11:14:27.457Z,10.38
2023-05-21T11:19:20.882Z,9.85
2023-05-21T11:24:19.693Z,9.88
2023-05-21T11:29:14.640Z,10.30
2023-05-21T11:34:30.152Z,10.63
2023-05-21T11:39:26.556Z,11.13
2023-05-21T11:44:42.659Z,11.77
2023-05-21T11:49:36.323Z,9.90
2023-05-21T11:54:34.762Z,8.85
2023-05-21T11:59:28.839Z,9.82
2023-05-21T12:04:23.147Z,9.13
2023-05-21T12:09:17.753Z,8.88
2023-05-21T12:14:30.910Z,10.45
2023-05-21T12:19:24.172Z,11.48
2023-05-21T12:24:17.995Z,9.40
2023-05-21T12:29:11.661Z,9.57
2023-05-21T12:34:05.927Z,15.85
2023-05-21T12:38:59.077Z,8.20
2023-05-21T12:43:53.274Z,10.15
2023-05-21T12:49:04.874Z,8.52
2023-05-21T12:53:58.002Z,8.05
2023-05-21T12:58:51.767Z,9.07
2023-05-21T13:03:45.079Z,10.45
2023-05-21T13:08:38.969Z,9.40
2023-05-21T13:13:32.147Z,10.40
2023-05-21T13:18:25.395Z,9.60
2023-05-21T13:23:18.128Z,8.35
2023-05-21T13:28:15.069Z,7.10
2023-05-21T13:33:09.323Z,9.68
2023-05-21T13:38:03.231Z,7.18
2023-05-21T13:42:56.841Z,11.07
2023-05-21T13:47:50.667Z,7.82
2023-05-21T13:52:44.121Z,9.45
2023-05-21T13:57:38.134Z,12.48
2023-05-21T14:02:31.730Z,9.70
2023-05-21T14:07:25.560Z,10.15
2023-05-21T14:12:20.585Z,9.48
2023-05-21T14:17:14.653Z,11.88
2023-05-21T14:22:08.041Z,9.05
2023-05-21T14:27:02.657Z,10.63
2023-05-21T14:31:56.332Z,10.52
2023-05-21T14:36:49.798Z,9.88
2023-05-21T14:41:43.986Z,9.02
2023-05-21T14:46:37.938Z,13.13
2023-05-21T14:51:31.847Z,7.95
2023-05-21T14:56:28.112Z,8.27
2023-05-21T15:01:22.024Z,7.75
2023-05-21T15:06:15.248Z,7.00
2023-05-21T15:11:10.645Z,9.77
2023-05-21T15:16:05.035Z,8.23
2023-05-21T15:20:59.116Z,9.25
2023-05-21T15:25:52.204Z,9.25
2023-05-21T15:30:45.530Z,10.85
2023-05-21T15:35:39.609Z,8.35
2023-05-21T15:40:33.077Z,10.27
2023-05-21T15:45:26.089Z,8.90
2023-05-21T15:50:20.589Z,7.57
2023-05-21T15:55:15.061Z,10.65
2023-05-21T16:00:11.424Z,8.18
2023-05-21T16:05:06.583Z,12.10
2023-05-21T16:10:00.186Z,17.52
2023-05-21T16:14:53.741Z,11.40
2023-05-21T16:19:47.953Z,11.73
2023-05-21T16:24:42.297Z,8.43
2023-05-21T16:29:38.173Z,9.25
2023-05-21T16:34:34.679Z,8.45
2023-05-21T16:39:28.176Z,8.63
2023-05-21T16:44:21.547Z,8.07
2023-05-21T16:49:14.364Z,10.00
2023-05-21T16:54:07.687Z,9.23
2023-05-21T16:59:01.584Z,12.05
2023-05-21T17:03:56.360Z,8.27
2023-05-21T17:08:51.293Z,8.57
2023-05-21T17:13:48.517Z,9.27
2023-05-21T17:18:42.184Z,10.50
2023-05-21T17:23:36.524Z,13.40
2023-05-21T17:28:30.000Z,14.80
2023-05-21T17:33:24.769Z,16.77
2023-05-21T17:38:18.068Z,77.43
2023-05-21T17:43:11.903Z,14.95
2023-05-21T17:48:06.491Z,11.02
2023-05-21T17:53:00.621Z,8.63
2023-05-21T17:57:57.810Z,8.40
2023-05-21T18:02:51.572Z,18.20
2023-05-21T18:07:46.020Z,16.80
2023-05-21T18:12:41.455Z,11.63
2023-05-21T18:17:36.215Z,9.00
2023-05-21T18:22:29.446Z,17.38
2023-05-21T18:27:22.356Z,9.40
2023-05-21T18:32:17.670Z,8.50
2023-05-21T18:37:12.270Z,11.32
2023-05-21T18:42:13.381Z,9.75
2023-05-21T18:47:08.401Z,8.25
2023-05-21T18:52:01.092Z,13.10
2023-05-21T18:56:55.532Z,15.30
2023-05-21T19:01:50.041Z,11.60
2023-05-21T19:06:43.939Z,9.75
2023-05-21T19:11:37.898Z,13.38
2023-05-21T19:16:31.809Z,10.68
2023-05-21T19:21:27.338Z,9.75
2023-05-21T19:26:23.002Z,11.57
2023-05-21T19:31:16.694Z,9.98
2023-05-21T19:36:10.679Z,9.82
2023-05-21T19:41:04.493Z,10.60
2023-05-21T19:45:57.996Z,9.80
2023-05-21T19:50:52.296Z,9.95
2023-05-21T19:55:46.678Z,10.15
2023-05-21T20:00:40.728Z,13.73
2023-05-21T20:05:34.614Z,13.68
2023-05-21T20:10:28.481Z,13.98
2023-05-21T20:15:22.498Z,9.98
2023-05-21T20:20:17.283Z,15.23
2023-05-21T20:25:11.112Z,10.88
2023-05-21T20:30:05.119Z,12.27
2023-05-21T20:35:03.459Z,24.63
2023-05-21T20:39:58.405Z,10.95
2023-05-21T20:44:53.499Z,10.68
2023-05-21T20:49:47.407Z,12.75
2023-05-21T20:54:43.074Z,15.77
2023-05-21T20:59:37.116Z,12.18
2023-05-21T21:04:30.608Z,14.40
2023-05-21T21:09:23.371Z,10.52
2023-05-21T21:14:17.003Z,12.75
2023-05-21T21:19:11.229Z,12.52
2023-05-21T21:24:06.531Z,14.13
2023-05-21T21:29:00.204Z,12.90
2023-05-21T21:33:53.637Z,16.83
2023-05-21T21:38:48.914Z,14.60
2023-05-21T21:43:42.540Z,13.48
2023-05-21T21:48:36.180Z,15.38
2023-05-21T21:53:29.513Z,13.80
2023-05-21T21:58:23.290Z,11.77
2023-05-21T22:03:17.428Z,15.85
2023-05-21T22:08:11.965Z,12.40
2023-05-21T22:13:06.174Z,11.38
2023-05-21T22:18:08.005Z,14.85
2023-05-21T22:23:01.043Z,14.00
2023-05-21T22:27:54.434Z,11.93
2023-05-21T22:32:48.901Z,14.90
2023-05-21T22:37:42.356Z,12.95
2023-05-21T22:42:35.650Z,12.57
2023-05-21T22:47:29.679Z,11.95
2023-05-21T22:52:23.204Z,14.10
2023-05-21T22:57:17.670Z,12.52
2023-05-21T23:02:11.004Z,12.13
2023-05-21T23:07:05.027Z,12.43
2023-05-21T23:11:58.574Z,11.82
2023-05-21T23:16:54.385Z,12.68
2023-05-21T23:21:47.861Z,14.18
2023-05-21T23:26:41.801Z,13.60
2023-05-21T23:31:35.400Z,17.50
2023-05-21T23:36:29.362Z,14.50
2023-05-21T23:41:24.471Z,16.67
2023-05-21T23:46:18.245Z,17.83
2023-05-21T23:51:12.204Z,14.52
2023-05-21T23:56:06.719Z,13.93
